sensor_id;sensor_type;location;lat;lon;timestamp;P1;durP1;ratioP1;P2;durP2;ratioP2
2650;SDS011;1335;48.180;16.342;2023-08-01T00:00:09;3.73;;;2.80;;
2650;SDS011;1335;48.180;16.342;2023-08-01T00:02:36;2.93;;;2.73;;
2650;SDS011;1335;48.180;16.342;2023-08-01T00:05:04;5.93;;;3.40;;
2650;SDS011;1335;48.180;16.342;2023-08-01T00:07:33;3.83;;;3.30;;
2650;SDS011;1335;48.180;16.342;2023-08-01T00:10:00;3.20;;;2.90;;
2650;SDS011;1335;48.180;16.342;2023-08-01T00:12:27;3.77;;;3.47;;
2650;SDS011;1335;48.180;16.342;2023-08-01T00:14:54;6.93;;;3.13;;
2650;SDS011;1335;48.180;16.342;2023-08-01T00:17:22;5.30;;;3.40;;
2650;SDS011;1335;48.180;16.342;2023-08-01T00:19:49;3.37;;;3.00;;
2650;SDS011;1335;48.180;16.342;2023-08-01T00:22:16;4.43;;;3.30;;
2650;SDS011;1335;48.180;16.342;2023-08-01T00:24:45;3.77;;;3.00;;
2650;SDS011;1335;48.180;16.342;2023-08-01T00:27:13;4.20;;;3.23;;
2650;SDS011;1335;48.180;16.342;2023-08-01T00:29:40;7.70;;;3.73;;
2650;SDS011;1335;48.180;16.342;2023-08-01T00:32:07;3.90;;;3.50;;
2650;SDS011;1335;48.180;16.342;2023-08-01T00:34:35;4.40;;;3.43;;
2650;SDS011;1335;48.180;16.342;2023-08-01T00:37:02;3.57;;;3.10;;
2650;SDS011;1335;48.180;16.342;2023-08-01T00:39:29;4.20;;;2.80;;
2650;SDS011;1335;48.180;16.342;2023-08-01T00:41:58;3.97;;;2.93;;
2650;SDS011;1335;48.180;16.342;2023-08-01T00:44:25;4.10;;;3.43;;
2650;SDS011;1335;48.180;16.342;2023-08-01T00:46:52;4.40;;;3.50;;
2650;SDS011;1335;48.180;16.342;2023-08-01T00:49:20;4.43;;;3.33;;
2650;SDS011;1335;48.180;16.342;2023-08-01T00:51:47;5.93;;;3.27;;
2650;SDS011;1335;48.180;16.342;2023-08-01T00:54:14;4.97;;;3.00;;
2650;SDS011;1335;48.180;16.342;2023-08-01T00:56:42;5.53;;;4.00;;
2650;SDS011;1335;48.180;16.342;2023-08-01T00:59:11;4.63;;;3.70;;
2650;SDS011;1335;48.180;16.342;2023-08-01T01:01:38;3.87;;;3.57;;
2650;SDS011;1335;48.180;16.342;2023-08-01T01:04:06;4.90;;;3.23;;
2650;SDS011;1335;48.180;16.342;2023-08-01T01:06:34;2.90;;;2.60;;
2650;SDS011;1335;48.180;16.342;2023-08-01T01:09:13;3.77;;;3.20;;
2650;SDS011;1335;48.180;16.342;2023-08-01T01:11:41;3.10;;;2.90;;
2650;SDS011;1335;48.180;16.342;2023-08-01T01:14:08;3.80;;;3.10;;
2650;SDS011;1335;48.180;16.342;2023-08-01T01:16:37;4.17;;;2.97;;
2650;SDS011;1335;48.180;16.342;2023-08-01T01:19:06;2.87;;;2.63;;
2650;SDS011;1335;48.180;16.342;2023-08-01T01:21:34;3.07;;;2.77;;
2650;SDS011;1335;48.180;16.342;2023-08-01T01:24:20;4.37;;;2.60;;
2650;SDS011;1335;48.180;16.342;2023-08-01T01:26:48;4.47;;;3.17;;
2650;SDS011;1335;48.180;16.342;2023-08-01T01:29:16;3.57;;;3.10;;
2650;SDS011;1335;48.180;16.342;2023-08-01T01:31:43;2.33;;;2.13;;
2650;SDS011;1335;48.180;16.342;2023-08-01T01:34:10;3.07;;;2.87;;
2650;SDS011;1335;48.180;16.342;2023-08-01T01:36:39;3.03;;;2.63;;
2650;SDS011;1335;48.180;16.342;2023-08-01T01:39:06;5.53;;;2.80;;
2650;SDS011;1335;48.180;16.342;2023-08-01T01:41:34;3.23;;;2.93;;
2650;SDS011;1335;48.180;16.342;2023-08-01T01:44:01;3.43;;;3.13;;
2650;SDS011;1335;48.180;16.342;2023-08-01T01:46:28;3.77;;;2.70;;
2650;SDS011;1335;48.180;16.342;2023-08-01T01:48:55;5.00;;;3.47;;
2650;SDS011;1335;48.180;16.342;2023-08-01T01:51:26;7.33;;;2.80;;
2650;SDS011;1335;48.180;16.342;2023-08-01T01:53:54;3.10;;;2.53;;
2650;SDS011;1335;48.180;16.342;2023-08-01T01:56:22;3.00;;;2.80;;
2650;SDS011;1335;48.180;16.342;2023-08-01T01:58:49;2.70;;;2.50;;
2650;SDS011;1335;48.180;16.342;2023-08-01T02:01:16;3.13;;;2.80;;
2650;SDS011;1335;48.180;16.342;2023-08-01T02:03:44;2.87;;;2.63;;
2650;SDS011;1335;48.180;16.342;2023-08-01T02:06:11;3.40;;;2.90;;
2650;SDS011;1335;48.180;16.342;2023-08-01T02:08:38;3.33;;;3.03;;
2650;SDS011;1335;48.180;16.342;2023-08-01T02:11:07;3.13;;;2.83;;
2650;SDS011;1335;48.180;16.342;2023-08-01T02:13:34;3.27;;;2.97;;
2650;SDS011;1335;48.180;16.342;2023-08-01T02:16:01;3.77;;;3.37;;
2650;SDS011;1335;48.180;16.342;2023-08-01T02:18:28;2.70;;;2.50;;
2650;SDS011;1335;48.180;16.342;2023-08-01T02:20:56;3.50;;;2.50;;
2650;SDS011;1335;48.180;16.342;2023-08-01T02:23:23;3.03;;;2.80;;
2650;SDS011;1335;48.180;16.342;2023-08-01T02:25:51;3.17;;;2.53;;
2650;SDS011;1335;48.180;16.342;2023-08-01T02:28:19;5.37;;;2.50;;
2650;SDS011;1335;48.180;16.342;2023-08-01T02:30:46;4.63;;;3.10;;
2650;SDS011;1335;48.180;16.342;2023-08-01T02:33:15;4.13;;;2.80;;
2650;SDS011;1335;48.180;16.342;2023-08-01T02:35:42;3.17;;;2.87;;
2650;SDS011;1335;48.180;16.342;2023-08-01T02:38:10;4.00;;;2.63;;
2650;SDS011;1335;48.180;16.342;2023-08-01T02:40:37;3.40;;;2.60;;
2650;SDS011;1335;48.180;16.342;2023-08-01T02:43:04;3.10;;;2.80;;
2650;SDS011;1335;48.180;16.342;2023-08-01T02:45:33;4.47;;;2.80;;
2650;SDS011;1335;48.180;16.342;2023-08-01T02:48:00;3.90;;;3.27;;
2650;SDS011;1335;48.180;16.342;2023-08-01T02:50:27;3.77;;;3.37;;
2650;SDS011;1335;48.180;16.342;2023-08-01T02:52:55;3.27;;;2.57;;
2650;SDS011;1335;48.180;16.342;2023-08-01T02:55:22;3.83;;;2.90;;
2650;SDS011;1335;48.180;16.342;2023-08-01T02:57:49;2.90;;;2.70;;
2650;SDS011;1335;48.180;16.342;2023-08-01T03:00:16;4.20;;;2.83;;
2650;SDS011;1335;48.180;16.342;2023-08-01T03:02:45;2.97;;;2.63;;
2650;SDS011;1335;48.180;16.342;2023-08-01T03:05:13;3.50;;;3.20;;
2650;SDS011;1335;48.180;16.342;2023-08-01T03:07:40;2.73;;;2.50;;
2650;SDS011;1335;48.180;16.342;2023-08-01T03:10:07;3.50;;;3.20;;
2650;SDS011;1335;48.180;16.342;2023-08-01T03:12:36;3.80;;;3.00;;
2650;SDS011;1335;48.180;16.342;2023-08-01T03:15:03;4.87;;;3.70;;
2650;SDS011;1335;48.180;16.342;2023-08-01T03:17:31;3.30;;;2.70;;
2650;SDS011;1335;48.180;16.342;2023-08-01T03:20:00;2.87;;;2.50;;
2650;SDS011;1335;48.180;16.342;2023-08-01T03:22:28;2.53;;;2.30;;
2650;SDS011;1335;48.180;16.342;2023-08-01T03:24:55;3.90;;;2.80;;
2650;SDS011;1335;48.180;16.342;2023-08-01T03:27:22;2.60;;;2.40;;
2650;SDS011;1335;48.180;16.342;2023-08-01T03:29:50;4.20;;;2.70;;
2650;SDS011;1335;48.180;16.342;2023-08-01T03:32:17;3.67;;;2.77;;
2650;SDS011;1335;48.180;16.342;2023-08-01T03:34:45;4.07;;;2.30;;
2650;SDS011;1335;48.180;16.342;2023-08-01T03:37:14;3.63;;;3.10;;
2650;SDS011;1335;48.180;16.342;2023-08-01T03:39:41;2.17;;;2.07;;
2650;SDS011;1335;48.180;16.342;2023-08-01T03:42:08;4.20;;;2.80;;
2650;SDS011;1335;48.180;16.342;2023-08-01T03:44:36;2.70;;;2.47;;
2650;SDS011;1335;48.180;16.342;2023-08-01T03:47:03;2.83;;;2.63;;
2650;SDS011;1335;48.180;16.342;2023-08-01T03:49:31;3.83;;;2.90;;
2650;SDS011;1335;48.180;16.342;2023-08-01T03:51:59;2.70;;;2.50;;
2650;SDS011;1335;48.180;16.342;2023-08-01T03:54:27;3.00;;;2.50;;
2650;SDS011;1335;48.180;16.342;2023-08-01T03:56:55;3.07;;;2.77;;
2650;SDS011;1335;48.180;16.342;2023-08-01T03:59:22;5.83;;;5.33;;
2650;SDS011;1335;48.180;16.342;2023-08-01T04:01:49;3.43;;;3.13;;
2650;SDS011;1335;48.180;16.342;2023-08-01T04:04:16;3.00;;;2.17;;
2650;SDS011;1335;48.180;16.342;2023-08-01T04:06:45;4.80;;;2.37;;
2650;SDS011;1335;48.180;16.342;2023-08-01T04:09:13;2.30;;;2.20;;
2650;SDS011;1335;48.180;16.342;2023-08-01T04:11:41;4.20;;;2.73;;
2650;SDS011;1335;48.180;16.342;2023-08-01T04:14:08;3.73;;;2.80;;
2650;SDS011;1335;48.180;16.342;2023-08-01T04:16:36;2.47;;;2.27;;
2650;SDS011;1335;48.180;16.342;2023-08-01T04:19:03;5.00;;;3.20;;
2650;SDS011;1335;48.180;16.342;2023-08-01T04:21:30;3.00;;;2.73;;
2650;SDS011;1335;48.180;16.342;2023-08-01T04:23:57;2.80;;;2.50;;
2650;SDS011;1335;48.180;16.342;2023-08-01T04:26:25;3.27;;;2.67;;
2650;SDS011;1335;48.180;16.342;2023-08-01T04:28:53;3.20;;;2.90;;
2650;SDS011;1335;48.180;16.342;2023-08-01T04:31:21;3.70;;;3.40;;
2650;SDS011;1335;48.180;16.342;2023-08-01T04:33:48;2.70;;;2.50;;
2650;SDS011;1335;48.180;16.342;2023-08-01T04:36:15;2.63;;;2.43;;
2650;SDS011;1335;48.180;16.342;2023-08-01T04:38:42;2.60;;;2.37;;
2650;SDS011;1335;48.180;16.342;2023-08-01T04:41:10;3.60;;;2.90;;
2650;SDS011;1335;48.180;16.342;2023-08-01T04:43:37;4.03;;;2.53;;
2650;SDS011;1335;48.180;16.342;2023-08-01T04:46:05;5.73;;;2.83;;
2650;SDS011;1335;48.180;16.342;2023-08-01T04:48:33;2.93;;;2.73;;
2650;SDS011;1335;48.180;16.342;2023-08-01T04:51:00;6.07;;;2.80;;
2650;SDS011;1335;48.180;16.342;2023-08-01T04:53:28;3.00;;;2.70;;
2650;SDS011;1335;48.180;16.342;2023-08-01T04:55:55;5.50;;;3.13;;
2650;SDS011;1335;48.180;16.342;2023-08-01T04:58:22;5.83;;;3.27;;
2650;SDS011;1335;48.180;16.342;2023-08-01T05:00:49;6.37;;;2.77;;
2650;SDS011;1335;48.180;16.342;2023-08-01T05:03:18;6.50;;;3.40;;
2650;SDS011;1335;48.180;16.342;2023-08-01T05:05:45;4.57;;;3.73;;
2650;SDS011;1335;48.180;16.342;2023-08-01T05:08:13;3.60;;;3.10;;
2650;SDS011;1335;48.180;16.342;2023-08-01T05:10:40;3.47;;;3.17;;
2650;SDS011;1335;48.180;16.342;2023-08-01T05:13:07;6.73;;;3.53;;
2650;SDS011;1335;48.180;16.342;2023-08-01T05:15:34;5.83;;;3.77;;
2650;SDS011;1335;48.180;16.342;2023-08-01T05:18:02;3.30;;;3.00;;
2650;SDS011;1335;48.180;16.342;2023-08-01T05:20:30;5.97;;;3.10;;
2650;SDS011;1335;48.180;16.342;2023-08-01T05:22:58;6.20;;;5.60;;
2650;SDS011;1335;48.180;16.342;2023-08-01T05:25:26;4.40;;;3.80;;
2650;SDS011;1335;48.180;16.342;2023-08-01T05:27:53;5.33;;;3.67;;
2650;SDS011;1335;48.180;16.342;2023-08-01T05:30:20;4.63;;;4.13;;
2650;SDS011;1335;48.180;16.342;2023-08-01T05:32:48;8.43;;;4.73;;
2650;SDS011;1335;48.180;16.342;2023-08-01T05:35:15;3.90;;;3.50;;
2650;SDS011;1335;48.180;16.342;2023-08-01T05:37:44;3.73;;;3.43;;
2650;SDS011;1335;48.180;16.342;2023-08-01T05:40:11;5.53;;;4.13;;
2650;SDS011;1335;48.180;16.342;2023-08-01T05:42:38;4.70;;;3.33;;
2650;SDS011;1335;48.180;16.342;2023-08-01T05:45:06;7.37;;;4.13;;
2650;SDS011;1335;48.180;16.342;2023-08-01T05:47:33;8.67;;;4.60;;
2650;SDS011;1335;48.180;16.342;2023-08-01T05:50:01;6.20;;;5.30;;
2650;SDS011;1335;48.180;16.342;2023-08-01T05:52:29;7.63;;;5.93;;
2650;SDS011;1335;48.180;16.342;2023-08-01T05:54:58;7.60;;;5.70;;
2650;SDS011;1335;48.180;16.342;2023-08-01T05:57:26;9.27;;;4.83;;
2650;SDS011;1335;48.180;16.342;2023-08-01T05:59:53;8.93;;;4.50;;
2650;SDS011;1335;48.180;16.342;2023-08-01T06:02:20;6.83;;;4.33;;
2650;SDS011;1335;48.180;16.342;2023-08-01T06:04:47;9.13;;;5.30;;
2650;SDS011;1335;48.180;16.342;2023-08-01T06:07:15;4.90;;;3.83;;
2650;SDS011;1335;48.180;16.342;2023-08-01T06:09:47;6.20;;;4.57;;
2650;SDS011;1335;48.180;16.342;2023-08-01T06:12:17;8.37;;;4.60;;
2650;SDS011;1335;48.180;16.342;2023-08-01T06:14:44;7.10;;;4.10;;
2650;SDS011;1335;48.180;16.342;2023-08-01T06:17:11;8.03;;;4.80;;
2650;SDS011;1335;48.180;16.342;2023-08-01T06:19:38;9.10;;;3.80;;
2650;SDS011;1335;48.180;16.342;2023-08-01T06:22:06;6.50;;;4.57;;
2650;SDS011;1335;48.180;16.342;2023-08-01T06:24:33;6.57;;;4.87;;
2650;SDS011;1335;48.180;16.342;2023-08-01T06:27:00;5.27;;;4.70;;
2650;SDS011;1335;48.180;16.342;2023-08-01T06:29:29;6.63;;;4.40;;
2650;SDS011;1335;48.180;16.342;2023-08-01T06:31:56;6.90;;;4.47;;
2650;SDS011;1335;48.180;16.342;2023-08-01T06:34:23;8.90;;;4.10;;
2650;SDS011;1335;48.180;16.342;2023-08-01T06:36:51;9.40;;;4.63;;
2650;SDS011;1335;48.180;16.342;2023-08-01T06:39:18;5.50;;;4.40;;
2650;SDS011;1335;48.180;16.342;2023-08-01T06:41:45;5.80;;;4.07;;
2650;SDS011;1335;48.180;16.342;2023-08-01T06:44:12;9.40;;;4.50;;
2650;SDS011;1335;48.180;16.342;2023-08-01T06:46:41;11.70;;;4.40;;
2650;SDS011;1335;48.180;16.342;2023-08-01T06:49:08;6.90;;;4.17;;
2650;SDS011;1335;48.180;16.342;2023-08-01T06:51:36;7.87;;;4.80;;
2650;SDS011;1335;48.180;16.342;2023-08-01T06:54:03;5.10;;;4.13;;
2650;SDS011;1335;48.180;16.342;2023-08-01T06:56:31;6.07;;;4.20;;
2650;SDS011;1335;48.180;16.342;2023-08-01T06:58:58;4.33;;;3.50;;
2650;SDS011;1335;48.180;16.342;2023-08-01T07:01:25;5.10;;;3.80;;
2650;SDS011;1335;48.180;16.342;2023-08-01T07:03:54;8.43;;;3.90;;
2650;SDS011;1335;48.180;16.342;2023-08-01T07:06:22;6.13;;;4.53;;
2650;SDS011;1335;48.180;16.342;2023-08-01T07:08:49;8.60;;;4.37;;
2650;SDS011;1335;48.180;16.342;2023-08-01T07:11:17;5.17;;;4.67;;
2650;SDS011;1335;48.180;16.342;2023-08-01T07:13:45;6.20;;;4.00;;
2650;SDS011;1335;48.180;16.342;2023-08-01T07:16:12;7.13;;;4.57;;
2650;SDS011;1335;48.180;16.342;2023-08-01T07:18:40;6.83;;;4.40;;
2650;SDS011;1335;48.180;16.342;2023-08-01T07:21:09;7.43;;;4.50;;
2650;SDS011;1335;48.180;16.342;2023-08-01T07:23:37;6.30;;;4.80;;
2650;SDS011;1335;48.180;16.342;2023-08-01T07:26:04;6.83;;;4.50;;
2650;SDS011;1335;48.180;16.342;2023-08-01T07:28:31;5.80;;;4.03;;
2650;SDS011;1335;48.180;16.342;2023-08-01T07:30:59;12.23;;;4.50;;
2650;SDS011;1335;48.180;16.342;2023-08-01T07:33:26;6.30;;;4.30;;
2650;SDS011;1335;48.180;16.342;2023-08-01T07:35:53;7.27;;;3.90;;
2650;SDS011;1335;48.180;16.342;2023-08-01T07:38:22;9.20;;;4.40;;
2650;SDS011;1335;48.180;16.342;2023-08-01T07:40:49;5.63;;;3.23;;
2650;SDS011;1335;48.180;16.342;2023-08-01T07:43:16;3.67;;;3.33;;
2650;SDS011;1335;48.180;16.342;2023-08-01T07:45:44;5.63;;;3.90;;
2650;SDS011;1335;48.180;16.342;2023-08-01T07:48:11;4.30;;;3.90;;
2650;SDS011;1335;48.180;16.342;2023-08-01T07:50:38;4.80;;;3.60;;
2650;SDS011;1335;48.180;16.342;2023-08-01T07:53:06;5.90;;;3.70;;
2650;SDS011;1335;48.180;16.342;2023-08-01T07:55:35;5.63;;;3.30;;
2650;SDS011;1335;48.180;16.342;2023-08-01T07:58:02;4.70;;;3.70;;
2650;SDS011;1335;48.180;16.342;2023-08-01T08:00:29;6.57;;;4.20;;
2650;SDS011;1335;48.180;16.342;2023-08-01T08:02:56;5.10;;;4.67;;
2650;SDS011;1335;48.180;16.342;2023-08-01T08:05:24;8.03;;;5.60;;
2650;SDS011;1335;48.180;16.342;2023-08-01T08:07:51;10.10;;;4.73;;
2650;SDS011;1335;48.180;16.342;2023-08-01T08:10:18;7.90;;;5.40;;
2650;SDS011;1335;48.180;16.342;2023-08-01T08:12:47;10.17;;;6.50;;
2650;SDS011;1335;48.180;16.342;2023-08-01T08:15:14;7.87;;;5.90;;
2650;SDS011;1335;48.180;16.342;2023-08-01T08:17:41;7.40;;;6.23;;
2650;SDS011;1335;48.180;16.342;2023-08-01T08:20:09;6.53;;;5.93;;
2650;SDS011;1335;48.180;16.342;2023-08-01T08:22:36;6.60;;;6.00;;
2650;SDS011;1335;48.180;16.342;2023-08-01T08:25:03;6.80;;;6.10;;
2650;SDS011;1335;48.180;16.342;2023-08-01T08:27:31;8.27;;;5.30;;
2650;SDS011;1335;48.180;16.342;2023-08-01T08:29:59;8.90;;;5.90;;
2650;SDS011;1335;48.180;16.342;2023-08-01T08:32:27;6.50;;;5.40;;
2650;SDS011;1335;48.180;16.342;2023-08-01T08:34:54;6.93;;;5.67;;
2650;SDS011;1335;48.180;16.342;2023-08-01T08:37:21;6.03;;;5.40;;
2650;SDS011;1335;48.180;16.342;2023-08-01T08:39:49;12.57;;;6.53;;
2650;SDS011;1335;48.180;16.342;2023-08-01T08:42:17;4.83;;;4.47;;
2650;SDS011;1335;48.180;16.342;2023-08-01T08:44:45;13.73;;;5.73;;
2650;SDS011;1335;48.180;16.342;2023-08-01T08:47:18;8.03;;;4.97;;
2650;SDS011;1335;48.180;16.342;2023-08-01T08:49:46;7.03;;;5.87;;
2650;SDS011;1335;48.180;16.342;2023-08-01T08:52:14;6.10;;;5.17;;
2650;SDS011;1335;48.180;16.342;2023-08-01T08:54:41;6.93;;;3.53;;
2650;SDS011;1335;48.180;16.342;2023-08-01T08:57:09;6.50;;;4.60;;
2650;SDS011;1335;48.180;16.342;2023-08-01T08:59:37;6.70;;;5.87;;
2650;SDS011;1335;48.180;16.342;2023-08-01T09:02:04;9.33;;;5.13;;
2650;SDS011;1335;48.180;16.342;2023-08-01T09:04:33;10.03;;;5.50;;
2650;SDS011;1335;48.180;16.342;2023-08-01T09:07:01;7.57;;;4.47;;
2650;SDS011;1335;48.180;16.342;2023-08-01T09:09:29;5.93;;;3.67;;
2650;SDS011;1335;48.180;16.342;2023-08-01T09:11:57;5.83;;;5.07;;
2650;SDS011;1335;48.180;16.342;2023-08-01T09:14:25;6.00;;;4.60;;
2650;SDS011;1335;48.180;16.342;2023-08-01T09:16:52;7.23;;;4.37;;
2650;SDS011;1335;48.180;16.342;2023-08-01T09:19:22;6.03;;;4.87;;
2650;SDS011;1335;48.180;16.342;2023-08-01T09:21:53;4.67;;;4.17;;
2650;SDS011;1335;48.180;16.342;2023-08-01T09:24:21;9.67;;;4.90;;
2650;SDS011;1335;48.180;16.342;2023-08-01T09:26:48;8.63;;;4.50;;
2650;SDS011;1335;48.180;16.342;2023-08-01T09:29:16;7.03;;;4.70;;
2650;SDS011;1335;48.180;16.342;2023-08-01T09:31:44;7.33;;;6.40;;
2650;SDS011;1335;48.180;16.342;2023-08-01T09:34:17;8.27;;;5.97;;
2650;SDS011;1335;48.180;16.342;2023-08-01T09:36:45;6.03;;;4.57;;
2650;SDS011;1335;48.180;16.342;2023-08-01T09:39:16;4.97;;;3.97;;
2650;SDS011;1335;48.180;16.342;2023-08-01T09:41:44;4.53;;;4.13;;
2650;SDS011;1335;48.180;16.342;2023-08-01T09:44:11;4.53;;;4.13;;
2650;SDS011;1335;48.180;16.342;2023-08-01T09:46:39;4.00;;;3.60;;
2650;SDS011;1335;48.180;16.342;2023-08-01T09:49:07;9.50;;;4.00;;
2650;SDS011;1335;48.180;16.342;2023-08-01T09:51:45;4.47;;;3.50;;
2650;SDS011;1335;48.180;16.342;2023-08-01T09:54:12;5.10;;;4.23;;
2650;SDS011;1335;48.180;16.342;2023-08-01T09:56:41;4.70;;;4.20;;
2650;SDS011;1335;48.180;16.342;2023-08-01T09:59:11;4.37;;;3.97;;
2650;SDS011;1335;48.180;16.342;2023-08-01T10:01:41;4.37;;;3.87;;
2650;SDS011;1335;48.180;16.342;2023-08-01T10:04:11;4.47;;;3.90;;
2650;SDS011;1335;48.180;16.342;2023-08-01T10:06:38;4.83;;;3.87;;
2650;SDS011;1335;48.180;16.342;2023-08-01T10:09:10;5.20;;;4.70;;
2650;SDS011;1335;48.180;16.342;2023-08-01T10:11:38;6.03;;;4.70;;
2650;SDS011;1335;48.180;16.342;2023-08-01T10:14:07;7.70;;;5.40;;
2650;SDS011;1335;48.180;16.342;2023-08-01T10:16:34;10.13;;;5.20;;
2650;SDS011;1335;48.180;16.342;2023-08-01T10:19:04;8.13;;;5.90;;
2650;SDS011;1335;48.180;16.342;2023-08-01T10:21:33;9.53;;;6.00;;
2650;SDS011;1335;48.180;16.342;2023-08-01T10:24:01;7.20;;;4.10;;
2650;SDS011;1335;48.180;16.342;2023-08-01T10:26:29;6.50;;;4.83;;
2650;SDS011;1335;48.180;16.342;2023-08-01T10:28:57;4.47;;;3.80;;
2650;SDS011;1335;48.180;16.342;2023-08-01T10:31:28;6.43;;;4.50;;
2650;SDS011;1335;48.180;16.342;2023-08-01T10:34:03;4.70;;;4.30;;
2650;SDS011;1335;48.180;16.342;2023-08-01T10:36:30;4.97;;;4.47;;
2650;SDS011;1335;48.180;16.342;2023-08-01T10:38:59;5.77;;;4.97;;
2650;SDS011;1335;48.180;16.342;2023-08-01T10:41:27;5.30;;;4.70;;
2650;SDS011;1335;48.180;16.342;2023-08-01T10:44:04;8.80;;;5.13;;
2650;SDS011;1335;48.180;16.342;2023-08-01T10:46:46;7.80;;;5.87;;
2650;SDS011;1335;48.180;16.342;2023-08-01T10:49:13;5.03;;;3.97;;
2650;SDS011;1335;48.180;16.342;2023-08-01T10:51:40;5.00;;;4.50;;
2650;SDS011;1335;48.180;16.342;2023-08-01T10:54:17;5.70;;;5.10;;
2650;SDS011;1335;48.180;16.342;2023-08-01T10:56:46;5.60;;;4.60;;
2650;SDS011;1335;48.180;16.342;2023-08-01T10:59:13;5.97;;;5.00;;
2650;SDS011;1335;48.180;16.342;2023-08-01T11:01:47;6.60;;;6.00;;
2650;SDS011;1335;48.180;16.342;2023-08-01T11:04:14;6.00;;;5.40;;
2650;SDS011;1335;48.180;16.342;2023-08-01T11:06:43;7.17;;;6.47;;
2650;SDS011;1335;48.180;16.342;2023-08-01T11:09:14;6.00;;;5.40;;
2650;SDS011;1335;48.180;16.342;2023-08-01T11:11:42;6.33;;;5.73;;
2650;SDS011;1335;48.180;16.342;2023-08-01T11:14:09;7.63;;;6.30;;
2650;SDS011;1335;48.180;16.342;2023-08-01T11:16:38;6.80;;;6.13;;
2650;SDS011;1335;48.180;16.342;2023-08-01T11:19:16;7.73;;;6.93;;
2650;SDS011;1335;48.180;16.342;2023-08-01T11:21:44;6.03;;;5.37;;
2650;SDS011;1335;48.180;16.342;2023-08-01T11:24:11;6.93;;;6.23;;
2650;SDS011;1335;48.180;16.342;2023-08-01T11:26:40;8.70;;;5.90;;
2650;SDS011;1335;48.180;16.342;2023-08-01T11:29:07;6.43;;;5.83;;
2650;SDS011;1335;48.180;16.342;2023-08-01T11:31:35;10.60;;;7.20;;
2650;SDS011;1335;48.180;16.342;2023-08-01T11:34:02;7.40;;;6.80;;
2650;SDS011;1335;48.180;16.342;2023-08-01T11:36:31;8.70;;;7.77;;
2650;SDS011;1335;48.180;16.342;2023-08-01T11:38:59;7.67;;;6.87;;
2650;SDS011;1335;48.180;16.342;2023-08-01T11:41:26;6.47;;;5.87;;
2650;SDS011;1335;48.180;16.342;2023-08-01T11:43:54;6.90;;;5.97;;
2650;SDS011;1335;48.180;16.342;2023-08-01T11:46:22;6.40;;;5.80;;
2650;SDS011;1335;48.180;16.342;2023-08-01T11:48:50;5.83;;;5.10;;
2650;SDS011;1335;48.180;16.342;2023-08-01T11:51:17;7.13;;;5.33;;
2650;SDS011;1335;48.180;16.342;2023-08-01T11:53:45;7.67;;;5.57;;
2650;SDS011;1335;48.180;16.342;2023-08-01T11:56:19;6.80;;;5.67;;
2650;SDS011;1335;48.180;16.342;2023-08-01T11:58:47;4.73;;;4.33;;
2650;SDS011;1335;48.180;16.342;2023-08-01T12:01:15;5.10;;;4.60;;
2650;SDS011;1335;48.180;16.342;2023-08-01T12:03:42;5.73;;;5.13;;
2650;SDS011;1335;48.180;16.342;2023-08-01T12:06:10;5.00;;;4.50;;
2650;SDS011;1335;48.180;16.342;2023-08-01T12:08:38;4.73;;;4.20;;
2650;SDS011;1335;48.180;16.342;2023-08-01T12:11:16;4.30;;;3.67;;
2650;SDS011;1335;48.180;16.342;2023-08-01T12:13:43;4.03;;;3.73;;
2650;SDS011;1335;48.180;16.342;2023-08-01T12:16:11;3.83;;;3.53;;
2650;SDS011;1335;48.180;16.342;2023-08-01T12:18:40;6.17;;;4.47;;
2650;SDS011;1335;48.180;16.342;2023-08-01T12:21:10;4.70;;;4.30;;
2650;SDS011;1335;48.180;16.342;2023-08-01T12:23:37;5.53;;;5.03;;
2650;SDS011;1335;48.180;16.342;2023-08-01T12:26:04;5.23;;;4.73;;
2650;SDS011;1335;48.180;16.342;2023-08-01T12:28:33;7.73;;;6.30;;
2650;SDS011;1335;48.180;16.342;2023-08-01T12:31:00;6.97;;;6.10;;
2650;SDS011;1335;48.180;16.342;2023-08-01T12:33:28;6.37;;;5.77;;
2650;SDS011;1335;48.180;16.342;2023-08-01T12:35:56;9.37;;;7.07;;
2650;SDS011;1335;48.180;16.342;2023-08-01T12:38:23;7.03;;;6.30;;
2650;SDS011;1335;48.180;16.342;2023-08-01T12:40:50;7.30;;;6.60;;
2650;SDS011;1335;48.180;16.342;2023-08-01T12:43:17;7.17;;;6.47;;
2650;SDS011;1335;48.180;16.342;2023-08-01T12:45:47;7.37;;;6.57;;
2650;SDS011;1335;48.180;16.342;2023-08-01T12:48:14;8.43;;;6.90;;
2650;SDS011;1335;48.180;16.342;2023-08-01T12:50:43;7.10;;;6.03;;
2650;SDS011;1335;48.180;16.342;2023-08-01T12:53:11;6.70;;;5.37;;
2650;SDS011;1335;48.180;16.342;2023-08-01T12:55:38;7.10;;;6.07;;
2650;SDS011;1335;48.180;16.342;2023-08-01T12:58:06;5.60;;;5.10;;
2650;SDS011;1335;48.180;16.342;2023-08-01T13:00:33;5.73;;;5.13;;
2650;SDS011;1335;48.180;16.342;2023-08-01T13:03:02;6.00;;;5.03;;
2650;SDS011;1335;48.180;16.342;2023-08-01T13:05:29;6.20;;;5.10;;
2650;SDS011;1335;48.180;16.342;2023-08-01T13:07:57;8.47;;;5.90;;
2650;SDS011;1335;48.180;16.342;2023-08-01T13:10:24;7.17;;;4.40;;
2650;SDS011;1335;48.180;16.342;2023-08-01T13:12:51;5.40;;;4.90;;
2650;SDS011;1335;48.180;16.342;2023-08-01T13:15:18;4.57;;;4.13;;
2650;SDS011;1335;48.180;16.342;2023-08-01T13:17:46;10.10;;;5.40;;
2650;SDS011;1335;48.180;16.342;2023-08-01T13:20:14;5.83;;;5.23;;
2650;SDS011;1335;48.180;16.342;2023-08-01T13:22:42;5.57;;;5.10;;
2650;SDS011;1335;48.180;16.342;2023-08-01T13:25:09;5.30;;;4.63;;
2650;SDS011;1335;48.180;16.342;2023-08-01T13:27:36;5.90;;;5.30;;
2650;SDS011;1335;48.180;16.342;2023-08-01T13:30:04;5.43;;;4.93;;
2650;SDS011;1335;48.180;16.342;2023-08-01T13:32:31;5.97;;;5.37;;
2650;SDS011;1335;48.180;16.342;2023-08-01T13:34:58;5.80;;;5.20;;
2650;SDS011;1335;48.180;16.342;2023-08-01T13:37:27;8.40;;;5.60;;
2650;SDS011;1335;48.180;16.342;2023-08-01T13:39:56;6.17;;;5.23;;
2650;SDS011;1335;48.180;16.342;2023-08-01T13:42:23;6.83;;;5.20;;
2650;SDS011;1335;48.180;16.342;2023-08-01T13:44:50;7.40;;;5.40;;
2650;SDS011;1335;48.180;16.342;2023-08-01T13:47:17;6.37;;;5.77;;
2650;SDS011;1335;48.180;16.342;2023-08-01T13:49:45;7.07;;;6.30;;
2650;SDS011;1335;48.180;16.342;2023-08-01T13:52:12;6.77;;;5.90;;
2650;SDS011;1335;48.180;16.342;2023-08-01T13:54:41;8.03;;;6.83;;
2650;SDS011;1335;48.180;16.342;2023-08-01T13:57:08;8.13;;;5.97;;
2650;SDS011;1335;48.180;16.342;2023-08-01T13:59:35;7.53;;;6.87;;
2650;SDS011;1335;48.180;16.342;2023-08-01T14:02:02;7.90;;;7.10;;
2650;SDS011;1335;48.180;16.342;2023-08-01T14:04:30;8.93;;;6.73;;
2650;SDS011;1335;48.180;16.342;2023-08-01T14:06:57;7.20;;;6.60;;
2650;SDS011;1335;48.180;16.342;2023-08-01T14:09:24;7.43;;;6.63;;
2650;SDS011;1335;48.180;16.342;2023-08-01T14:11:53;6.40;;;5.20;;
2650;SDS011;1335;48.180;16.342;2023-08-01T14:14:20;6.10;;;5.60;;
2650;SDS011;1335;48.180;16.342;2023-08-01T14:16:47;6.13;;;5.53;;
2650;SDS011;1335;48.180;16.342;2023-08-01T14:19:15;5.53;;;5.00;;
2650;SDS011;1335;48.180;16.342;2023-08-01T14:21:42;7.70;;;5.33;;
2650;SDS011;1335;48.180;16.342;2023-08-01T14:24:09;6.13;;;5.63;;
2650;SDS011;1335;48.180;16.342;2023-08-01T14:26:37;6.90;;;6.17;;
2650;SDS011;1335;48.180;16.342;2023-08-01T14:29:05;6.80;;;6.17;;
2650;SDS011;1335;48.180;16.342;2023-08-01T14:31:33;7.93;;;6.83;;
2650;SDS011;1335;48.180;16.342;2023-08-01T14:34:00;7.97;;;6.40;;
2650;SDS011;1335;48.180;16.342;2023-08-01T14:36:27;6.70;;;6.07;;
2650;SDS011;1335;48.180;16.342;2023-08-01T14:38:54;8.90;;;6.93;;
2650;SDS011;1335;48.180;16.342;2023-08-01T14:41:22;6.20;;;5.43;;
2650;SDS011;1335;48.180;16.342;2023-08-01T14:43:49;7.93;;;6.23;;
2650;SDS011;1335;48.180;16.342;2023-08-01T14:46:18;8.47;;;6.60;;
2650;SDS011;1335;48.180;16.342;2023-08-01T14:48:45;6.90;;;6.30;;
2650;SDS011;1335;48.180;16.342;2023-08-01T14:51:12;6.93;;;5.70;;
2650;SDS011;1335;48.180;16.342;2023-08-01T14:53:39;8.53;;;6.30;;
2650;SDS011;1335;48.180;16.342;2023-08-01T14:56:07;7.30;;;6.20;;
2650;SDS011;1335;48.180;16.342;2023-08-01T14:58:34;7.67;;;5.00;;
2650;SDS011;1335;48.180;16.342;2023-08-01T15:01:04;7.20;;;6.13;;
2650;SDS011;1335;48.180;16.342;2023-08-01T15:03:33;6.30;;;5.70;;